A80 TRACON Summary / KATL TAF
ATL TRACON Summary:
A band of strong showers and isolated thunderstorms will move into northwest GA by 06-07z. Expect the strongest convection to pass north of ATL, but there's a chance for showers/thunderstorms at ATL mostly between 09-13z. Surface winds will be from the southeast to south at 5-10kts, becoming south to southwest at 7-12kts by 07-08z and gusty near convection. Expect SCT/BKN070-080 clouds to lower to SCT/BKN025-050 clouds by 08-12z. Outside convection, significant flight hazards are not expected in the TRACON airspace.

Updated:4/24/2014 12:15 PM
ATL Terminal Aerodrome Forecast:

FTUS80 KATL 242333
KATL 242332Z 2500/2606 16006KT P6SM SCT070 SCT250
     FM250800 20007KT P6SM BKN050
     FM251200 23010KT P6SM SCT025 BKN050
     FM251500 24010G18KT P6SM BKN025
     FM251800 27012G20KT P6SM SCT040
     FM260000 30010KT P6SM SKC
ATL TRACON Area Remark:
ISOLATED TS POSSIBLE W/NW/N AFTER 07-08Z AND SW/S/NE/E AFTER 09-10Z
Convective Gate Forecast / Collaborative Convective Forecast Product / Vertical Wind Profile
Convective Gate Forecast
AIRMETs & SIGMETS/ Southeast Radar loop / Satellite Image (click on image to enlarge)

Southeast Radar Loop

 



USA.gov is the U.S. government's official web portal to all federal, state and local government web resources and services.